Time;durP1;ratioP1;P1;durP2;ratioP2;P2;SDS_P1;SDS_P2;PMS_P1;PMS_P2;Temp;Humidity;BMP_temperature;BMP_pressure;BME280_temperature;BME280_humidity;BME280_pressure;Samples;Min_cycle;Max_cycle;Signal;HPM_P1;HPM_P2
2022/05/25 00:00:44;;;;;;;1.23;0.70;;;;;;;17.39;66.54;98358.81;5006163;27;102999;-71
2022/05/25 00:03:12;;;;;;;1.40;0.70;;;;;;;17.46;65.59;98370.50;5034627;27;102935;-71
2022/05/25 00:05:41;;;;;;;1.57;0.60;;;;;;;17.75;65.08;98370.97;5012537;27;104446;-70
2022/05/25 00:08:11;;;;;;;0.98;0.63;;;;;;;17.85;64.85;98358.28;5008581;27;104273;-71
2022/05/25 00:10:40;;;;;;;0.75;0.60;;;;;;;17.75;66.06;98370.97;5007621;27;102738;-71
2022/05/25 00:13:09;;;;;;;0.80;0.60;;;;;;;17.78;65.84;98370.66;5025618;27;104076;-71
2022/05/25 00:15:37;;;;;;;1.20;0.55;;;;;;;17.81;65.70;98362.31;5032929;27;103252;-71
2022/05/25 00:18:05;;;;;;;1.10;0.60;;;;;;;17.86;65.15;98357.28;5026660;27;103245;-71
2022/05/25 00:20:34;;;;;;;1.90;0.80;;;;;;;17.86;64.98;98359.97;5022381;27;102741;-71
2022/05/25 00:23:02;;;;;;;2.97;0.90;;;;;;;17.37;66.87;98376.84;5027093;27;104857;-71
2022/05/25 00:25:34;;;;;;;0.65;0.50;;;;;;;17.74;65.66;98365.81;5035050;27;103248;-71
2022/05/25 00:28:03;;;;;;;1.13;0.82;;;;;;;17.84;64.03;98364.66;5027780;27;103946;-71
2022/05/25 00:30:32;;;;;;;1.95;1.00;;;;;;;17.96;63.95;98363.31;5032415;27;102715;-71
2022/05/25 00:33:02;;;;;;;1.47;0.90;;;;;;;17.87;64.26;98364.31;5027929;27;102923;-71
2022/05/25 00:35:34;;;;;;;2.08;1.40;;;;;;;17.95;63.52;98367.00;5030206;27;103341;-71
2022/05/25 00:38:03;;;;;;;2.33;1.48;;;;;;;17.90;63.39;98363.16;5026888;27;103423;-71
2022/05/25 00:40:38;;;;;;;1.55;1.02;;;;;;;17.84;63.21;98363.81;5008301;27;103509;-71
2022/05/25 00:43:06;;;;;;;0.98;0.80;;;;;;;17.84;62.61;98364.66;5026024;27;103939;-71
2022/05/25 00:45:38;;;;;;;1.30;0.70;;;;;;;17.84;62.81;98364.66;5025881;27;104216;-71
2022/05/25 00:48:08;;;;;;;0.70;0.70;;;;;;;17.80;61.65;98365.97;5026282;27;103192;-71
2022/05/25 00:53:19;;;;;;;0.80;0.60;;;;;;;17.85;62.05;98368.97;5009896;27;104326;-71
2022/05/25 00:55:49;;;;;;;0.60;0.60;;;;;;;17.88;61.47;98371.31;5007695;27;104247;-71
2022/05/25 00:58:17;;;;;;;1.57;0.73;;;;;;;17.76;62.34;98371.81;5027447;27;103427;-71
2022/05/25 01:00:45;;;;;;;0.60;0.60;;;;;;;17.81;62.49;98370.31;5020726;27;102918;-71
2022/05/25 01:03:14;;;;;;;0.65;0.65;;;;;;;17.83;62.60;98368.31;5026526;27;104130;-71
2022/05/25 01:05:55;;;;;;;0.90;0.60;;;;;;;17.83;61.82;98378.16;5029881;27;104118;-71
2022/05/25 01:08:37;;;;;;;0.80;0.50;;;;;;;17.88;62.07;98384.69;5026563;27;103299;-71
2022/05/25 01:11:20;;;;;;;0.88;0.70;;;;;;;17.82;61.86;98382.66;5027937;27;103088;-71
2022/05/25 01:13:56;;;;;;;0.73;0.60;;;;;;;17.81;61.79;98386.34;5026388;27;103933;-72
2022/05/25 01:16:34;;;;;;;1.15;0.60;;;;;;;17.77;61.40;98390.34;5006871;27;104149;-71
2022/05/25 01:19:13;;;;;;;0.98;0.60;;;;;;;17.81;61.30;98396.19;5027969;27;103250;-71
2022/05/25 01:21:48;;;;;;;1.38;0.70;;;;;;;17.80;61.52;98400.69;5027010;27;102854;-71
2022/05/25 01:24:30;;;;;;;0.60;0.50;;;;;;;17.81;61.82;98407.72;5017861;27;104426;-71
2022/05/25 01:27:24;;;;;;;1.40;0.60;;;;;;;17.80;62.56;98400.69;5029545;27;103919;-71
2022/05/25 01:30:15;;;;;;;1.30;0.60;;;;;;;17.82;62.66;98404.03;5025873;27;103453;-71
2022/05/25 01:32:56;;;;;;;1.90;0.60;;;;;;;17.76;61.89;98399.38;5024229;27;102576;-71
2022/05/25 01:35:34;;;;;;;0.65;0.50;;;;;;;17.75;61.87;98403.03;5007375;27;102738;-71
2022/05/25 01:38:14;;;;;;;1.98;0.80;;;;;;;17.73;62.21;98394.34;5027228;27;102685;-71
2022/05/25 01:40:48;;;;;;;1.00;0.70;;;;;;;17.60;61.70;98404.63;5027037;27;102988;-71
2022/05/25 01:43:21;;;;;;;1.95;0.80;;;;;;;17.62;62.69;98400.00;5030676;27;102802;-71
2022/05/25 01:45:55;;;;;;;0.67;0.60;;;;;;;17.61;62.89;98394.78;5030771;27;104278;-70
2022/05/25 01:48:25;;;;;;;1.00;0.60;;;;;;;17.53;62.99;98403.59;5026009;27;104311;-71
2022/05/25 01:50:58;;;;;;;1.63;0.60;;;;;;;17.54;63.21;98399.13;5024136;27;102648;-71
2022/05/25 01:53:32;;;;;;;0.60;0.60;;;;;;;17.50;63.34;98393.22;5025788;27;102790;-71
2022/05/25 01:56:04;;;;;;;0.77;0.50;;;;;;;17.52;63.10;98404.59;5025669;27;102779;-71
2022/05/25 01:58:36;;;;;;;0.77;0.52;;;;;;;17.54;63.13;98399.13;5027317;27;103930;-71
2022/05/25 02:01:08;;;;;;;1.00;0.50;;;;;;;17.54;63.66;98416.00;5021455;27;102667;-70
2022/05/25 02:06:52;;;;;;;0.50;0.50;;;;;;;17.51;62.70;98413.63;5028104;27;102703;-70
2022/05/25 02:09:31;;;;;;;0.53;0.53;;;;;;;17.52;62.55;98419.75;5014398;27;106968;-70
2022/05/25 02:12:08;;;;;;;0.80;0.60;;;;;;;17.47;62.89;98412.25;5026361;27;103422;-70
2022/05/25 02:14:49;;;;;;;0.68;0.50;;;;;;;17.37;62.45;98411.56;5023405;27;102899;-70
2022/05/25 02:17:27;;;;;;;0.50;0.50;;;;;;;17.40;62.39;98413.91;5023124;27;102811;-70
2022/05/25 02:20:03;;;;;;;0.60;0.50;;;;;;;17.38;62.15;98406.03;5018695;27;104160;-70
2022/05/25 02:22:38;;;;;;;1.50;0.60;;;;;;;17.35;61.54;98411.69;5004755;27;104749;-70
2022/05/25 02:25:13;;;;;;;1.00;0.60;;;;;;;17.38;61.59;98413.22;5023669;27;102866;-70
2022/05/25 02:27:46;;;;;;;0.60;0.60;;;;;;;17.35;60.87;98421.53;5024369;27;102727;-70
2022/05/25 02:30:18;;;;;;;0.93;0.50;;;;;;;17.16;61.40;98417.28;5026558;27;103993;-70
2022/05/25 02:32:52;;;;;;;1.48;0.65;;;;;;;17.17;61.33;98412.78;5023579;27;103274;-70
2022/05/25 02:35:22;;;;;;;1.33;0.60;;;;;;;16.91;62.62;98406.63;5027244;27;102908;-70
2022/05/25 02:37:52;;;;;;;0.70;0.50;;;;;;;16.78;63.23;98413.22;5024713;27;102716;-70
2022/05/25 02:40:21;;;;;;;1.60;0.60;;;;;;;17.02;62.20;98419.69;5020550;27;103248;-70
2022/05/25 02:42:49;;;;;;;0.90;0.70;;;;;;;17.10;60.97;98414.41;5005184;27;102705;-70
2022/05/25 02:45:17;;;;;;;1.70;0.73;;;;;;;17.02;61.30;98419.69;5023172;27;102567;-70
2022/05/25 02:47:45;;;;;;;0.75;0.50;;;;;;;16.94;61.03;98420.50;5027782;27;103192;-70
2022/05/25 02:50:16;;;;;;;0.70;0.50;;;;;;;16.98;61.81;98426.34;5023502;27;104162;-70
2022/05/25 02:52:44;;;;;;;1.10;0.50;;;;;;;16.99;60.72;98422.66;5023109;27;103192;-71
2022/05/25 02:55:13;;;;;;;1.08;0.60;;;;;;;16.99;60.85;98430.69;5024278;27;102625;-70
2022/05/25 02:57:41;;;;;;;1.60;0.70;;;;;;;16.96;61.31;98431.00;5028456;27;104172;-70
2022/05/25 03:00:10;;;;;;;0.73;0.50;;;;;;;17.01;61.37;98432.19;5021092;27;104177;-70
2022/05/25 03:02:39;;;;;;;1.48;0.50;;;;;;;17.04;60.84;98433.75;5028984;27;103164;-70
2022/05/25 03:05:10;;;;;;;1.52;0.60;;;;;;;17.01;61.22;98434.06;5028223;27;102701;-70
2022/05/25 03:07:40;;;;;;;0.67;0.53;;;;;;;16.96;61.48;98433.66;5029818;27;104048;-70
2022/05/25 03:10:09;;;;;;;1.00;0.63;;;;;;;16.98;61.79;98439.69;5018584;27;104095;-71
2022/05/25 03:12:36;;;;;;;1.00;0.60;;;;;;;16.93;61.97;98441.97;5022894;27;103347;-70
2022/05/25 03:15:05;;;;;;;1.60;0.53;;;;;;;16.72;63.04;98448.53;5005293;27;102913;-70
2022/05/25 03:17:33;;;;;;;0.80;0.50;;;;;;;16.65;63.41;98444.78;5023406;27;104031;-70
2022/05/25 03:20:01;;;;;;;0.70;0.50;;;;;;;16.64;63.41;98451.13;5023892;27;104021;-70
2022/05/25 03:22:29;;;;;;;2.10;0.70;;;;;;;16.47;63.46;98451.97;5028589;27;103320;-70
2022/05/25 03:24:58;;;;;;;1.33;0.70;;;;;;;16.38;64.17;98441.38;5009268;27;103761;-70
2022/05/25 03:27:26;;;;;;;0.88;0.60;;;;;;;16.46;64.47;98444.09;5029536;27;104410;-70
2022/05/25 03:29:54;;;;;;;1.50;0.70;;;;;;;16.41;64.00;98447.22;5029526;27;103305;-70
2022/05/25 03:32:22;;;;;;;1.20;0.70;;;;;;;16.40;64.20;98456.22;5026811;27;103413;-70
2022/05/25 03:34:50;;;;;;;2.58;0.60;;;;;;;16.32;64.66;98453.47;5023674;27;102686;-70
2022/05/25 03:37:17;;;;;;;1.30;0.73;;;;;;;15.59;66.77;98460.69;5030164;27;103003;-70
2022/05/25 03:39:45;;;;;;;1.03;0.70;;;;;;;15.79;66.90;98465.91;5027537;27;103300;-70
2022/05/25 03:42:17;;;;;;;0.70;0.60;;;;;;;15.77;66.09;98467.88;5030954;27;103208;-72
2022/05/25 03:44:46;;;;;;;1.67;0.70;;;;;;;16.04;66.10;98459.84;5025659;27;105728;-72
2022/05/25 03:47:17;;;;;;;0.60;0.60;;;;;;;16.12;66.41;98462.59;5027318;27;103566;-73
2022/05/25 03:49:45;;;;;;;1.10;0.60;;;;;;;15.85;67.04;98473.31;5028100;27;104038;-71
2022/05/25 03:52:19;;;;;;;1.30;0.70;;;;;;;15.55;67.03;98474.44;5023637;27;103589;-72
2022/05/25 03:54:47;;;;;;;0.50;0.50;;;;;;;15.70;66.89;98488.09;5025276;27;103083;-74
2022/05/25 03:57:16;;;;;;;0.73;0.50;;;;;;;15.97;66.43;98498.75;5028788;27;105085;-74
2022/05/25 03:59:45;;;;;;;2.30;0.57;;;;;;;16.04;66.09;98497.16;5007657;27;104379;-74
2022/05/25 04:02:13;;;;;;;1.20;0.68;;;;;;;16.14;65.70;98492.63;5037894;27;103176;-71
2022/05/25 04:04:41;;;;;;;2.75;0.70;;;;;;;15.84;66.64;98496.44;5023892;27;102677;-70
2022/05/25 04:07:10;;;;;;;1.02;0.73;;;;;;;15.77;67.20;98495.38;5031024;27;104151;-72
2022/05/25 04:09:37;;;;;;;1.00;0.70;;;;;;;15.96;66.99;98495.25;5025432;27;104628;-70
2022/05/25 04:12:06;;;;;;;0.52;0.50;;;;;;;16.20;66.04;98500.84;5011021;27;104265;-70
2022/05/25 04:14:38;;;;;;;1.10;0.82;;;;;;;15.88;67.70;98508.47;5008184;27;102809;-70
2022/05/25 04:17:05;;;;;;;1.75;0.70;;;;;;;15.83;68.82;98509.91;5011412;27;103062;-71
2022/05/25 04:19:38;;;;;;;1.13;0.70;;;;;;;15.92;68.62;98509.84;5029350;27;103340;-70
2022/05/25 04:22:06;;;;;;;1.20;0.80;;;;;;;15.98;68.26;98517.25;5041490;27;103227;-78
2022/05/25 04:24:34;;;;;;;1.23;0.90;;;;;;;16.00;68.13;98517.13;5035148;27;102602;-78
2022/05/25 04:27:02;;;;;;;1.40;0.88;;;;;;;15.37;69.92;98519.59;5016208;28;104254;-78
2022/05/25 04:29:30;;;;;;;3.58;1.00;;;;;;;15.25;70.31;98520.75;5049181;27;104077;-79
2022/05/25 04:31:59;;;;;;;1.20;0.85;;;;;;;15.47;69.96;98523.09;5033995;27;103219;-77
2022/05/25 04:34:27;;;;;;;1.38;1.00;;;;;;;15.31;70.77;98532.63;5054880;27;102663;-77
2022/05/25 04:37:48;;;;;;;1.25;0.93;;;;;;;15.77;68.92;98537.97;5049606;27;102603;-70
2022/05/25 04:39:43;;;;;;;2.05;1.08;;;;;;;16.01;67.74;98540.09;5024142;27;103642;-70
2022/05/25 04:42:12;;;;;;;1.87;1.10;;;;;;;16.16;67.58;98550.13;5019826;27;103576;-70
2022/05/25 04:44:40;;;;;;;1.02;0.80;;;;;;;16.30;67.09;98545.25;5024874;27;102699;-70
2022/05/25 04:47:09;;;;;;;1.53;1.03;;;;;;;16.36;66.94;98553.50;5020515;27;104265;-70
2022/05/25 04:49:42;;;;;;;1.48;0.88;;;;;;;16.45;66.88;98547.22;5005744;27;104267;-70
2022/05/25 04:52:10;;;;;;;0.70;0.70;;;;;;;16.51;65.61;98548.47;5005049;27;104269;-70
2022/05/25 04:54:38;;;;;;;1.10;0.82;;;;;;;16.48;66.34;98560.28;5024126;27;102685;-70
2022/05/25 04:57:20;;;;;;;1.10;0.80;;;;;;;16.57;65.78;98563.88;5008982;27;104662;-70
2022/05/25 04:59:48;;;;;;;1.70;0.80;;;;;;;16.66;64.35;98568.31;5022915;27;103263;-70
2022/05/25 05:02:19;;;;;;;0.65;0.60;;;;;;;16.76;64.61;98575.25;5024906;27;103278;-70
2022/05/25 05:04:48;;;;;;;1.60;0.80;;;;;;;16.74;65.20;98577.25;5024393;27;104507;-70
2022/05/25 05:07:16;;;;;;;0.85;0.70;;;;;;;16.74;65.31;98577.25;5023726;27;104037;-73
2022/05/25 05:09:46;;;;;;;1.45;0.90;;;;;;;16.65;65.71;98583.47;5022749;27;103314;-70
2022/05/25 05:12:15;;;;;;;1.98;1.00;;;;;;;16.52;65.54;98591.00;5025251;27;103039;-70
2022/05/25 05:14:45;;;;;;;1.23;0.90;;;;;;;16.47;66.04;98595.94;5023355;27;102972;-70
2022/05/25 05:17:13;;;;;;;2.00;1.00;;;;;;;16.17;66.24;98605.06;5005889;27;102817;-71
2022/05/25 05:19:59;;;;;;;0.95;0.77;;;;;;;16.46;64.50;98604.06;5022684;27;103395;-71
2022/05/25 05:22:27;;;;;;;2.20;1.10;;;;;;;16.45;66.08;98603.22;5005113;27;105990;-70
2022/05/25 05:24:57;;;;;;;1.27;0.90;;;;;;;16.35;66.00;98601.63;5025817;27;102673;-70
2022/05/25 05:27:24;;;;;;;2.05;0.90;;;;;;;16.21;64.71;98610.94;5015678;27;103846;-69
2022/05/25 05:29:52;;;;;;;1.67;0.80;;;;;;;16.62;63.60;98610.44;5021937;27;102623;-70
2022/05/25 05:32:20;;;;;;;0.85;0.77;;;;;;;16.78;62.83;98607.97;5020221;27;103237;-72
2022/05/25 05:34:48;;;;;;;2.40;0.77;;;;;;;16.81;63.04;98607.63;5018617;27;103071;-70
2022/05/25 05:37:24;;;;;;;1.55;0.80;;;;;;;16.71;62.85;98606.88;5026141;27;103554;-70
2022/05/25 05:39:55;;;;;;;1.60;0.77;;;;;;;16.94;62.76;98604.59;5027403;27;103877;-70
2022/05/25 05:42:25;;;;;;;1.52;1.00;;;;;;;16.82;61.85;98613.81;5025322;27;103182;-70
2022/05/25 05:44:58;;;;;;;1.20;0.90;;;;;;;16.84;61.53;98611.00;5038210;27;102540;-83
2022/05/25 05:47:31;;;;;;;1.95;0.80;;;;;;;16.76;62.11;98617.94;5036964;27;102930;-81
2022/05/25 05:50:00;;;;;;;1.30;0.90;;;;;;;16.68;62.29;98620.53;5016848;27;104054;-82
2022/05/25 05:52:30;;;;;;;2.00;0.70;;;;;;;17.24;61.32;98620.22;5026356;27;103261;-80
2022/05/25 05:54:58;;;;;;;1.90;0.90;;;;;;;17.46;59.89;98626.06;5038465;27;102569;-80
2022/05/25 05:57:26;;;;;;;1.70;0.73;;;;;;;17.37;60.02;98622.50;5030691;27;104258;-81
2022/05/25 05:59:54;;;;;;;1.58;1.00;;;;;;;17.26;60.58;98614.72;5035938;27;103286;-82
2022/05/25 06:02:24;;;;;;;2.43;0.90;;;;;;;17.14;61.17;98623.97;5027632;27;103200;-79
2022/05/25 06:04:52;;;;;;;2.20;0.70;;;;;;;17.15;62.07;98633.66;5029027;27;103027;-82
2022/05/25 06:07:22;;;;;;;1.17;0.70;;;;;;;17.25;60.68;98639.75;5025492;27;104448;-83
2022/05/25 06:09:52;;;;;;;1.70;0.90;;;;;;;17.34;61.99;98638.81;5015150;27;104305;-79
2022/05/25 06:12:21;;;;;;;1.20;0.57;;;;;;;17.44;61.57;98633.38;5030664;27;103169;-80
2022/05/25 06:14:49;;;;;;;0.90;0.80;;;;;;;17.65;60.99;98629.41;5028880;27;102604;-80
2022/05/25 06:20:12;;;;;;;3.63;1.00;;;;;;;17.31;59.69;98644.47;4973067;27;103822;-70
2022/05/25 06:22:42;;;;;;;2.95;1.00;;;;;;;17.38;59.74;98637.50;5026490;27;103172;-70
2022/05/25 06:25:11;;;;;;;2.80;1.00;;;;;;;17.77;60.01;98646.84;5015162;27;102792;-70
2022/05/25 06:27:39;;;;;;;2.95;0.90;;;;;;;17.90;57.92;98643.75;5023174;27;103919;-70
2022/05/25 06:30:08;;;;;;;1.40;0.70;;;;;;;18.33;57.02;98648.16;5004638;27;103954;-70
2022/05/25 06:32:38;;;;;;;2.08;0.65;;;;;;;18.77;55.69;98651.50;5006688;27;104252;-70
2022/05/25 06:35:06;;;;;;;1.90;0.97;;;;;;;18.60;55.54;98655.97;5024722;27;102768;-71
2022/05/25 06:37:34;;;;;;;1.65;0.88;;;;;;;18.82;56.02;98655.38;5023130;27;104165;-70
2022/05/25 06:40:02;;;;;;;2.10;0.82;;;;;;;18.76;56.19;98656.00;5023296;27;104398;-70
2022/05/25 06:42:31;;;;;;;2.28;1.10;;;;;;;18.89;57.00;98661.72;5024066;27;103043;-70
2022/05/25 06:44:59;;;;;;;1.52;0.93;;;;;;;18.81;56.40;98661.72;5029590;27;102666;-77
2022/05/25 06:47:30;;;;;;;2.20;0.90;;;;;;;18.75;56.42;98669.56;5035682;27;102853;-78
2022/05/25 06:49:58;;;;;;;1.20;0.87;;;;;;;18.53;55.81;98666.47;5034677;27;104308;-76
2022/05/25 06:52:26;;;;;;;2.53;1.20;;;;;;;18.57;56.19;98672.34;5027348;27;103107;-75
2022/05/25 06:54:54;;;;;;;2.88;0.90;;;;;;;19.10;55.07;98669.31;5034794;27;102655;-76
2022/05/25 06:57:25;;;;;;;1.15;0.70;;;;;;;18.96;55.59;98678.81;5027647;27;103930;-77
2022/05/25 06:59:55;;;;;;;1.37;1.13;;;;;;;19.20;54.05;98679.88;5016852;27;105444;-77
2022/05/25 07:02:24;;;;;;;2.38;0.90;;;;;;;19.28;54.07;98688.75;5031384;27;103374;-77
2022/05/25 07:04:53;;;;;;;1.00;0.90;;;;;;;19.31;53.87;98698.28;5036389;27;102880;-77
2022/05/25 07:07:24;;;;;;;1.73;1.10;;;;;;;18.87;52.14;98701.22;5036010;27;102843;-77
2022/05/25 07:09:52;;;;;;;3.40;1.00;;;;;;;19.26;52.78;98697.94;5013192;27;104284;-77
2022/05/25 07:12:20;;;;;;;2.50;1.10;;;;;;;19.11;53.32;98703.94;5011928;27;103527;-77
2022/05/25 07:14:48;;;;;;;1.95;0.93;;;;;;;18.97;53.40;98696.56;5035023;27;102520;-77
2022/05/25 07:17:17;;;;;;;2.60;0.85;;;;;;;18.55;54.18;98701.09;5030500;27;103816;-69
2022/05/25 07:19:47;;;;;;;2.10;0.80;;;;;;;18.75;53.27;98702.50;5007195;27;104490;-69
2022/05/25 07:22:16;;;;;;;1.80;0.82;;;;;;;19.09;52.55;98697.91;5003516;27;103334;-69
2022/05/25 07:24:46;;;;;;;1.63;0.90;;;;;;;18.56;54.02;98697.41;5025266;27;102945;-69
2022/05/25 07:27:14;;;;;;;2.92;0.95;;;;;;;18.45;53.85;98701.19;5021947;27;103881;-69
2022/05/25 07:29:42;;;;;;;1.42;0.80;;;;;;;19.42;53.29;98706.03;5022832;27;103378;-69
2022/05/25 07:32:13;;;;;;;2.90;0.90;;;;;;;19.18;50.43;98697.91;5015092;27;103226;-70
2022/05/25 07:34:49;;;;;;;1.80;0.80;;;;;;;19.92;49.46;98701.34;5020633;27;103169;-69
2022/05/25 07:37:21;;;;;;;1.10;0.90;;;;;;;20.15;47.49;98707.66;5020944;27;104647;-69
2022/05/25 07:39:52;;;;;;;1.27;0.80;;;;;;;20.56;48.42;98699.50;5021688;27;103506;-69
2022/05/25 07:42:22;;;;;;;1.90;0.80;;;;;;;20.30;48.76;98706.97;5018643;27;103232;-70
2022/05/25 07:44:57;;;;;;;2.55;1.00;;;;;;;18.80;49.86;98705.56;5013758;27;102729;-77
2022/05/25 07:47:26;;;;;;;2.40;0.90;;;;;;;19.25;51.45;98712.34;5029446;27;102910;-77
2022/05/25 07:49:56;;;;;;;2.17;0.70;;;;;;;19.44;51.23;98710.22;5034506;27;104644;-78
2022/05/25 07:52:28;;;;;;;1.27;0.70;;;;;;;20.16;49.90;98717.38;5011009;27;103349;-78
2022/05/25 07:54:58;;;;;;;1.48;0.70;;;;;;;20.44;48.94;98715.16;5038340;27;102689;-77
2022/05/25 07:57:26;;;;;;;1.97;1.00;;;;;;;20.67;49.37;98715.25;5039185;27;102814;-77
2022/05/25 07:59:53;;;;;;;1.75;1.00;;;;;;;21.25;48.99;98721.00;5029340;27;104406;-78
2022/05/25 08:08:03;;;;;;;2.75;0.85;;;;;;;22.84;47.71;98709.09;5024543;27;104562;-77
2022/05/25 08:10:31;;;;;;;3.63;1.03;;;;;;;22.90;45.38;98711.06;5013833;27;104043;-77
2022/05/25 08:13:01;;;;;;;1.63;0.95;;;;;;;23.53;45.31;98708.47;5007293;27;104747;-77
2022/05/25 08:15:31;;;;;;;1.77;0.80;;;;;;;23.48;43.38;98700.13;5037693;27;102884;-78
2022/05/25 08:17:59;;;;;;;2.17;0.90;;;;;;;21.51;46.22;98715.28;5032135;27;102896;-78
2022/05/25 08:20:32;;;;;;;2.88;0.88;;;;;;;20.94;47.46;98712.09;5011074;27;104047;-77
2022/05/25 08:22:59;;;;;;;1.83;1.00;;;;;;;21.85;45.21;98706.78;5034866;27;103211;-78
2022/05/25 08:25:27;;;;;;;1.98;0.95;;;;;;;22.64;45.61;98702.63;5020210;27;103642;-77
2022/05/25 08:27:55;;;;;;;2.42;1.05;;;;;;;23.32;45.73;98703.03;5033623;27;104313;-77
2022/05/25 08:30:23;;;;;;;1.00;0.75;;;;;;;23.01;43.65;98703.31;5033787;27;103860;-77
2022/05/25 08:32:51;;;;;;;1.33;0.80;;;;;;;23.66;41.96;98705.88;5036298;27;103235;-78
2022/05/25 08:35:19;;;;;;;1.10;0.70;;;;;;;24.54;41.03;98705.31;5027427;27;102761;-78
2022/05/25 08:37:49;;;;;;;2.88;0.93;;;;;;;24.35;41.21;98700.66;5019272;27;104070;-77
2022/05/25 08:40:19;;;;;;;2.05;0.98;;;;;;;23.52;42.05;98701.41;5032374;27;103823;-78
2022/05/25 08:42:53;;;;;;;2.10;1.02;;;;;;;22.04;41.61;98705.44;5035147;27;103370;-78
2022/05/25 08:45:24;;;;;;;3.30;0.90;;;;;;;22.20;43.38;98703.44;5037662;27;102849;-78
2022/05/25 08:47:56;;;;;;;2.10;0.98;;;;;;;21.80;44.55;98706.50;5029961;27;103791;-78
2022/05/25 08:50:25;;;;;;;2.53;0.87;;;;;;;21.19;46.07;98710.97;5038841;27;103767;-78
2022/05/25 08:52:58;;;;;;;1.70;0.90;;;;;;;21.62;46.59;98705.94;5032522;27;103185;-78
2022/05/25 08:55:37;;;;;;;1.92;0.80;;;;;;;21.45;46.02;98709.78;5033259;27;103180;-77
2022/05/25 08:58:09;;;;;;;1.50;0.90;;;;;;;20.60;48.10;98706.22;5030074;27;104420;-78
2022/05/25 09:00:37;;;;;;;2.92;0.90;;;;;;;20.65;47.38;98701.16;5030133;27;103805;-78
2022/05/25 09:03:13;;;;;;;1.83;1.00;;;;;;;21.03;49.18;98705.66;5031861;27;103439;-77
2022/05/25 09:05:46;;;;;;;1.43;0.80;;;;;;;22.38;46.76;98693.13;5030875;27;102976;-78
2022/05/25 09:08:22;;;;;;;2.13;0.80;;;;;;;23.01;45.58;98697.09;5026746;27;102797;-77
2022/05/25 09:10:54;;;;;;;2.55;0.90;;;;;;;23.59;44.86;98704.16;5041024;27;104006;-78
2022/05/25 09:13:28;;;;;;;2.50;0.90;;;;;;;24.59;41.79;98699.34;5028875;27;103330;-78
2022/05/25 09:18:53;;;;;;;0.75;0.70;;;;;;;24.74;39.10;98697.34;5032060;27;103274;-78
2022/05/25 09:21:26;;;;;;;2.30;0.80;;;;;;;23.96;41.64;98700.34;5028535;27;104029;-78
2022/05/25 09:23:59;;;;;;;3.70;0.90;;;;;;;21.62;42.94;98711.31;5009993;27;104006;-78
2022/05/25 09:26:27;;;;;;;1.60;0.70;;;;;;;23.10;42.39;98695.97;5030458;27;102832;-78
2022/05/25 09:29:05;;;;;;;1.60;0.70;;;;;;;21.84;44.14;98707.78;5030352;27;102754;-78
2022/05/25 09:31:40;;;;;;;1.90;1.08;;;;;;;22.69;42.85;98703.75;5039863;27;104195;-78
2022/05/25 09:34:14;;;;;;;3.53;1.17;;;;;;;23.46;41.89;98710.28;5031860;27;103169;-78
2022/05/25 09:36:48;;;;;;;1.90;0.88;;;;;;;22.47;41.88;98718.94;5017326;27;102981;-78
2022/05/25 09:39:26;;;;;;;1.33;0.70;;;;;;;21.69;42.55;98712.28;5026965;27;104278;-79
2022/05/25 09:41:57;;;;;;;1.50;0.50;;;;;;;22.49;42.33;98716.91;5031506;27;104188;-78
2022/05/25 09:44:26;;;;;;;1.40;0.60;;;;;;;23.00;42.87;98714.28;5029374;27;103215;-77
2022/05/25 09:46:57;;;;;;;1.10;0.73;;;;;;;23.29;41.11;98718.75;5034741;27;102650;-78
2022/05/25 09:49:30;;;;;;;2.33;0.80;;;;;;;22.91;41.36;98720.78;5024050;27;102858;-78
2022/05/25 09:52:03;;;;;;;2.67;0.77;;;;;;;22.45;42.30;98715.63;5027877;27;103792;-78
2022/05/25 09:54:36;;;;;;;2.45;0.80;;;;;;;21.96;42.63;98719.81;5031693;27;103316;-77
2022/05/25 09:57:08;;;;;;;3.83;0.82;;;;;;;22.84;42.75;98711.81;5004322;27;102756;-75
2022/05/25 09:59:42;;;;;;;2.25;0.77;;;;;;;22.28;43.25;98708.75;5015758;27;104147;-78
2022/05/25 10:02:25;;;;;;;3.10;0.75;;;;;;;22.05;43.47;98713.34;5016245;27;103945;-81
2022/05/25 10:04:56;;;;;;;2.75;0.90;;;;;;;21.53;44.04;98723.19;5031231;27;103558;-77
2022/05/25 10:07:31;;;;;;;0.98;0.60;;;;;;;20.48;43.59;98726.38;5020850;27;103464;-76
2022/05/25 10:10:05;;;;;;;2.58;0.68;;;;;;;23.61;44.37;98710.19;5032573;27;104240;-77
2022/05/25 10:12:40;;;;;;;1.27;0.70;;;;;;;24.53;41.81;98709.09;5014694;27;104177;-81
2022/05/25 10:15:11;;;;;;;1.73;0.63;;;;;;;24.32;38.56;98703.75;5015318;27;104111;-80
2022/05/25 10:17:41;;;;;;;3.38;0.80;;;;;;;25.60;38.42;98702.00;5025256;27;103394;-79
2022/05/25 10:20:23;;;;;;;3.03;1.00;;;;;;;25.43;36.75;98708.84;5008671;28;103966;-79
2022/05/25 10:23:00;;;;;;;1.77;0.80;;;;;;;25.49;39.67;98712.63;5036024;27;105203;-79
2022/05/25 10:25:34;;;;;;;0.93;0.70;;;;;;;23.91;41.03;98716.28;5035712;27;103228;-79
2022/05/25 10:28:04;;;;;;;1.83;0.70;;;;;;;21.92;41.11;98713.94;5030109;27;102793;-76
2022/05/25 10:39:23;;;;;;;1.02;0.60;;;;;;;21.77;42.56;98709.53;5011654;27;103012;-78
2022/05/25 10:42:02;;;;;;;3.70;0.70;;;;;;;22.04;41.66;98711.66;5025903;27;104227;-78
2022/05/25 10:44:36;;;;;;;2.00;0.68;;;;;;;22.63;41.60;98709.00;5020540;27;103352;-78
2022/05/25 10:47:05;;;;;;;1.85;0.70;;;;;;;21.60;41.83;98714.22;5025290;27;103242;-78
2022/05/25 10:49:38;;;;;;;1.77;0.60;;;;;;;22.18;42.06;98713.53;5023614;27;104576;-78
2022/05/25 10:52:19;;;;;;;1.80;0.80;;;;;;;21.78;41.96;98713.91;5023068;27;104460;-74
2022/05/25 10:54:51;;;;;;;1.40;0.70;;;;;;;21.29;43.46;98719.66;5004996;27;104209;-75
2022/05/25 10:57:44;;;;;;;1.50;0.75;;;;;;;21.08;43.05;98711.38;4996868;27;104990;-75
2022/05/25 11:00:18;;;;;;;3.10;0.80;;;;;;;21.03;43.62;98716.41;5001819;27;103207;-74
2022/05/25 11:03:08;;;;;;;1.30;0.80;;;;;;;21.47;43.50;98724.75;5027630;27;103850;-75
2022/05/25 11:05:46;;;;;;;1.63;0.73;;;;;;;23.06;41.84;98714.38;5028304;27;103328;-75
2022/05/25 11:08:27;;;;;;;1.83;0.70;;;;;;;23.27;40.34;98710.03;5020388;27;103256;-74
2022/05/25 11:11:03;;;;;;;1.77;0.70;;;;;;;24.71;37.97;98709.38;5022069;27;103107;-74
2022/05/25 11:14:01;;;;;;;2.00;1.00;;;;;;;25.24;38.30;98701.50;5021362;27;103248;-76
2022/05/25 11:16:44;;;;;;;2.17;0.80;;;;;;;25.00;38.18;98702.88;5023125;27;103563;-75
2022/05/25 11:19:47;;;;;;;2.63;0.80;;;;;;;23.73;39.60;98697.88;5017113;27;103156;-75
2022/05/25 11:22:36;;;;;;;2.10;0.60;;;;;;;24.93;37.57;98696.59;4974988;27;102940;-75
2022/05/25 11:25:20;;;;;;;2.22;0.80;;;;;;;22.82;40.33;98703.09;5023360;27;103641;-74
2022/05/25 11:28:05;;;;;;;2.08;0.80;;;;;;;22.37;40.73;98704.91;5018294;27;104606;-75
2022/05/25 11:30:44;;;;;;;1.67;0.70;;;;;;;23.78;39.65;98708.06;5013513;27;104215;-75
2022/05/25 11:33:25;;;;;;;1.90;0.90;;;;;;;22.15;40.73;98708.53;5031346;27;102781;-75
2022/05/25 11:36:23;;;;;;;4.95;0.85;;;;;;;22.51;40.97;98701.38;5021241;27;103006;-74
2022/05/25 11:39:03;;;;;;;2.33;0.88;;;;;;;22.96;38.34;98702.22;5005269;27;104371;-74
2022/05/25 11:41:39;;;;;;;2.60;0.80;;;;;;;24.49;38.71;98691.59;4991792;27;104213;-73
2022/05/25 11:44:49;;;;;;;1.47;0.63;;;;;;;23.74;39.62;98698.69;5009031;27;102875;-73
2022/05/25 11:47:35;;;;;;;2.25;0.75;;;;;;;23.95;39.60;98701.34;4977498;27;103253;-75
2022/05/25 11:50:19;;;;;;;4.63;0.77;;;;;;;23.83;39.85;98694.84;5009487;27;104310;-74
2022/05/25 11:53:12;;;;;;;2.97;0.70;;;;;;;23.66;39.31;98695.09;5006915;27;103955;-73
2022/05/25 11:55:47;;;;;;;2.30;1.00;;;;;;;25.36;37.56;98698.00;5002317;27;104119;-74
2022/05/25 11:58:28;;;;;;;2.30;0.77;;;;;;;25.68;37.44;98693.72;5021980;27;102855;-74
2022/05/25 12:01:04;;;;;;;3.20;0.80;;;;;;;25.52;35.84;98695.97;5017856;27;104031;-74
2022/05/25 12:03:59;;;;;;;1.42;0.65;;;;;;;25.74;35.56;98703.69;5000641;27;103013;-75
2022/05/25 12:07:05;;;;;;;2.17;0.73;;;;;;;25.74;35.85;98698.28;5017131;27;103149;-75
2022/05/25 12:10:05;;;;;;;2.05;0.65;;;;;;;25.37;34.82;98704.25;5004251;27;103920;-76
2022/05/25 12:12:42;;;;;;;2.35;0.70;;;;;;;26.61;33.96;98695.28;5003241;27;104388;-74
2022/05/25 12:15:18;;;;;;;0.57;0.40;;;;;;;26.79;33.34;98686.50;5017990;27;103207;-77